Elliston Post Office, Australia
Current Conditions -  °F | °C
As of 3:00 AM on Friday 24 Oct 2014 (Local Time) from YCDU Reporting Station
Clear Clear  
Wind Chill: 66°   Ceiling: Unl
Heat Index: 66°   Visibility: 6mi
Dew Point: 50°   Wind: 7mph
Humidity: 56%   Direction: 60°ENE
Pressure: 29.83"   Gusts: NA
Location:  33.65°S, 134.88°E
Report Text: YCDU 231700Z AUTO 06006KT 9999 // NCD 19/10 Q1010
Loading
Personal Weather Stations






























Interactive Weather Map
Tropical Storm Tracking
New forecast layout! Learn more

10-Day Weather Forecast

Advertisements
Track Severe Weather on mobile